Range, AL (36473)

9:39 PM CST on December 17, 2014 (GMT -0600)
B.E.C. | Change Station
CLOSE
Current Station
Personal Weather Station
Location: Atmore, AL
Elevation: 272 ft
Nearby Weather Stations

Elev 272 ft 31.07 °N, 87.37 °W | Updated 12 minutes ago

Mostly Cloudy
Mostly Cloudy
46.3 °F
Feels Like 45 °F
N
4.0
Wind Variable Wind from NNW
Gusts 6.0 mph

Today
High -- | Low -- °F
--% Chance of Precip.
Yesterday
High -- | Low -- °F
Precip. -- in
6:41 AM 4:48 PM
Waning Crescent, 17% visible
Pressure 30.20 in
Visibility 10.0 miles
Clouds Clear
Windchill 45 °F
Dew Point 43 °F
Humidity 88%
Rainfall 0.00 in
Snow Depth Not available.
UV 0 out of 12
Pollen 3.20 out of 12
Air Quality Not available.
Flu Activity Not available.
METAR KGZH 180253Z AUTO 00000KT 10SM CLR 06/04 A3020 RMK AO2 SLP226 T00560039 58000

More Conditions Fewer Conditions

Pressure 30.20 in
Visibility 10.0 miles
Clouds Clear
Windchill 45 °F
Dew Point 43 °F
Humidity 88%
Rainfall 0.00 in
Snow Depth Not available.
UV 0 out of 12
Pollen 3.20 out of 12
Air Quality Not available.
Flu Activity Not available.
METAR KGZH 180253Z AUTO 00000KT 10SM CLR 06/04 A3020 RMK AO2 SLP226 T00560039 58000

More Conditions Fewer Conditions

10-Day Weather Forecast

Almanac

Astronomy

Dec. 17, 2014 Rise Set
Actual Time
Civil Twilight
Nautical Twilight
Astronomical Twilight
Moon
Length of Visible Light
Length of Day
Tomorrow will be .
, % of the Moon is Illuminated

Today's Extremes

State Highs State Lows

Community

WunderPhotos

Upload Photos

1,778,877 photos uploaded!

WunderBlogs® & News

Nearby

Air Quality

  Air Quality AQ Index Pollutant
Not available.

Snow Depth

Station Depth Elevation

Earthquake Activity

City Distance Mag. Time & Date
Minimum magnitude displayed is 2.5.

Coastal Water Temperatures

Place Temperature

Nearby Weather Stations